Time;durP1;ratioP1;P1;durP2;ratioP2;P2;SDS_P1;SDS_P2;PMS_P1;PMS_P2;Temp;Humidity;BMP_temperature;BMP_pressure;BME280_temperature;BME280_humidity;BME280_pressure;Samples;Min_cycle;Max_cycle;Signal;HPM_P1;HPM_P2
2021/06/25 00:02:17;;;;;;;5.67;3.40;;;;;;;;;;5119215;28;20236;-68
2021/06/25 00:04:45;;;;;;;3.97;3.10;;;;;;;;;;5119257;28;20578;-68
2021/06/25 00:07:14;;;;;;;5.63;3.50;;;;;;;;;;5119530;28;20201;-69
2021/06/25 00:09:42;;;;;;;5.23;3.30;;;;;;;;;;5119374;28;20209;-68
2021/06/25 00:12:10;;;;;;;6.40;3.23;;;;;;;;;;5112912;28;20217;-68
2021/06/25 00:14:38;;;;;;;6.37;3.30;;;;;;;;;;5114517;28;20221;-68
2021/06/25 00:17:06;;;;;;;6.17;3.37;;;;;;;;;;5119272;28;20236;-69
2021/06/25 00:19:34;;;;;;;3.63;2.97;;;;;;;;;;5119232;28;20205;-69
2021/06/25 00:22:02;;;;;;;3.83;3.47;;;;;;;;;;5119173;28;20696;-69
2021/06/25 00:24:31;;;;;;;3.37;3.00;;;;;;;;;;5119105;28;20660;-69
2021/06/25 00:26:58;;;;;;;3.70;3.33;;;;;;;;;;5118723;28;20213;-69
2021/06/25 00:29:26;;;;;;;5.40;3.27;;;;;;;;;;5118786;28;20240;-69
2021/06/25 00:31:54;;;;;;;4.10;3.60;;;;;;;;;;5118920;28;20228;-68
2021/06/25 00:34:22;;;;;;;3.23;2.93;;;;;;;;;;5119030;28;20256;-68
2021/06/25 00:36:49;;;;;;;4.13;3.20;;;;;;;;;;5118464;28;20240;-68
2021/06/25 00:39:17;;;;;;;6.00;2.90;;;;;;;;;;5118574;28;20201;-68
2021/06/25 00:41:46;;;;;;;3.80;3.37;;;;;;;;;;5118530;28;20676;-68
2021/06/25 00:44:16;;;;;;;5.73;3.20;;;;;;;;;;5118780;28;20648;-68
2021/06/25 00:46:44;;;;;;;3.17;2.97;;;;;;;;;;5118545;28;20232;-68
2021/06/25 00:49:12;;;;;;;3.57;3.27;;;;;;;;;;5118649;28;20216;-68
2021/06/25 00:51:40;;;;;;;7.47;3.67;;;;;;;;;;5118587;28;20231;-68
2021/06/25 00:54:08;;;;;;;3.87;3.20;;;;;;;;;;5118546;28;20255;-68
2021/06/25 00:56:36;;;;;;;6.93;3.67;;;;;;;;;;5118374;28;20268;-68
2021/06/25 00:59:05;;;;;;;3.77;3.47;;;;;;;;;;5105129;28;20606;-68
2021/06/25 01:01:33;;;;;;;4.30;3.87;;;;;;;;;;5118565;28;20683;-68
2021/06/25 01:04:01;;;;;;;4.23;3.60;;;;;;;;;;5118495;28;20258;-68
2021/06/25 01:06:29;;;;;;;4.13;3.73;;;;;;;;;;5118740;28;20212;-69
2021/06/25 01:08:57;;;;;;;3.50;3.20;;;;;;;;;;5118585;28;20656;-71
2021/06/25 01:11:25;;;;;;;3.77;3.47;;;;;;;;;;5118010;28;20225;-68
2021/06/25 01:13:52;;;;;;;4.30;3.20;;;;;;;;;;5118247;28;20282;-68
2021/06/25 01:16:22;;;;;;;4.57;3.50;;;;;;;;;;5118457;28;20200;-66
2021/06/25 01:18:49;;;;;;;3.50;3.30;;;;;;;;;;5118464;28;20200;-66
2021/06/25 01:21:18;;;;;;;5.70;3.40;;;;;;;;;;5118315;28;20240;-65
2021/06/25 01:23:46;;;;;;;5.80;3.53;;;;;;;;;;5118593;28;20240;-66
2021/06/25 01:26:14;;;;;;;4.40;3.43;;;;;;;;;;5117702;28;20250;-67
2021/06/25 01:28:42;;;;;;;5.87;4.17;;;;;;;;;;5118222;28;20201;-67
2021/06/25 01:31:10;;;;;;;5.13;3.50;;;;;;;;;;5118472;28;20208;-67
2021/06/25 01:33:38;;;;;;;6.87;3.70;;;;;;;;;;5117852;28;20263;-67
2021/06/25 01:36:06;;;;;;;4.10;3.63;;;;;;;;;;5117991;28;20240;-67
2021/06/25 01:38:35;;;;;;;5.13;4.03;;;;;;;;;;5118244;28;20209;-67
2021/06/25 01:41:03;;;;;;;5.17;4.37;;;;;;;;;;5117791;28;20238;-66
2021/06/25 01:43:31;;;;;;;4.77;3.63;;;;;;;;;;5118187;28;20208;-67
2021/06/25 01:45:59;;;;;;;4.33;3.87;;;;;;;;;;5118237;28;20343;-66
2021/06/25 01:48:27;;;;;;;5.50;4.20;;;;;;;;;;5120267;28;20262;-65
2021/06/25 01:50:55;;;;;;;7.87;4.13;;;;;;;;;;5122116;28;20213;-65
2021/06/25 01:53:24;;;;;;;4.53;3.87;;;;;;;;;;5121984;28;20262;-64
2021/06/25 01:55:53;;;;;;;4.13;3.70;;;;;;;;;;5121424;28;20224;-65
2021/06/25 01:58:21;;;;;;;5.13;3.60;;;;;;;;;;5121904;28;20213;-65
2021/06/25 02:00:51;;;;;;;4.07;3.67;;;;;;;;;;5121977;28;20214;-64
2021/06/25 02:03:19;;;;;;;5.33;3.53;;;;;;;;;;5121606;28;20228;-64
2021/06/25 02:05:46;;;;;;;4.30;3.90;;;;;;;;;;5122025;28;20201;-65
2021/06/25 02:08:14;;;;;;;4.30;3.77;;;;;;;;;;5118995;28;20208;-65
2021/06/25 02:10:42;;;;;;;4.40;3.63;;;;;;;;;;5121374;28;20333;-66
2021/06/25 02:13:11;;;;;;;5.43;3.83;;;;;;;;;;5109378;28;20227;-65
2021/06/25 02:15:39;;;;;;;3.77;3.47;;;;;;;;;;5121480;28;20228;-67
2021/06/25 02:18:07;;;;;;;7.10;4.30;;;;;;;;;;5121592;28;20668;-67
2021/06/25 02:20:34;;;;;;;3.67;3.37;;;;;;;;;;5121623;28;20208;-65
2021/06/25 02:23:02;;;;;;;7.80;4.17;;;;;;;;;;5114785;28;20233;-65
2021/06/25 02:25:30;;;;;;;4.60;4.20;;;;;;;;;;5120809;28;20208;-66
2021/06/25 02:27:57;;;;;;;6.33;3.97;;;;;;;;;;5118347;28;20732;-68
2021/06/25 02:30:26;;;;;;;4.17;3.57;;;;;;;;;;5121396;28;20231;-66
2021/06/25 02:32:55;;;;;;;6.80;4.10;;;;;;;;;;5121376;28;20688;-67
2021/06/25 02:35:23;;;;;;;4.60;4.03;;;;;;;;;;5121223;28;20267;-67
2021/06/25 02:37:54;;;;;;;4.57;4.17;;;;;;;;;;5120755;28;20286;-68
2021/06/25 02:40:22;;;;;;;4.47;4.07;;;;;;;;;;5120649;28;20209;-65
2021/06/25 02:42:50;;;;;;;4.23;3.83;;;;;;;;;;5120810;28;20345;-66
2021/06/25 02:45:18;;;;;;;4.67;3.70;;;;;;;;;;5121247;28;20204;-65
2021/06/25 02:47:47;;;;;;;4.50;4.00;;;;;;;;;;5121145;28;20213;-66
2021/06/25 02:50:16;;;;;;;4.27;3.77;;;;;;;;;;5120955;28;20602;-68
2021/06/25 02:52:43;;;;;;;5.87;4.17;;;;;;;;;;5120865;28;20263;-65
2021/06/25 02:55:12;;;;;;;5.73;3.80;;;;;;;;;;5120600;28;20328;-68
2021/06/25 02:57:39;;;;;;;4.63;3.90;;;;;;;;;;5120728;28;20200;-68
2021/06/25 03:00:08;;;;;;;5.87;4.13;;;;;;;;;;5119346;28;20208;-65
2021/06/25 03:02:36;;;;;;;4.47;3.90;;;;;;;;;;5120604;28;20221;-66
2021/06/25 03:05:06;;;;;;;4.87;4.40;;;;;;;;;;5120409;28;20205;-66
2021/06/25 03:07:34;;;;;;;6.83;4.53;;;;;;;;;;5120391;28;20266;-66
2021/06/25 03:10:01;;;;;;;6.83;4.50;;;;;;;;;;5120643;28;20209;-66
2021/06/25 03:12:29;;;;;;;5.63;4.23;;;;;;;;;;5111508;28;20221;-66
2021/06/25 03:14:57;;;;;;;6.40;4.60;;;;;;;;;;5119282;28;20248;-65
2021/06/25 03:17:24;;;;;;;6.23;4.67;;;;;;;;;;5119817;28;20212;-65
2021/06/25 03:19:52;;;;;;;4.90;4.40;;;;;;;;;;5120366;28;20213;-65
2021/06/25 03:22:21;;;;;;;4.43;4.03;;;;;;;;;;5120294;28;20224;-65
2021/06/25 03:24:49;;;;;;;4.53;4.13;;;;;;;;;;5120364;28;20235;-65
2021/06/25 03:27:17;;;;;;;9.57;4.37;;;;;;;;;;5119533;28;20205;-66
2021/06/25 03:29:44;;;;;;;4.60;4.20;;;;;;;;;;5120271;28;20266;-66
2021/06/25 03:32:12;;;;;;;5.27;4.10;;;;;;;;;;5119759;28;20225;-66
2021/06/25 03:34:42;;;;;;;4.40;4.00;;;;;;;;;;5119812;28;20612;-66
2021/06/25 03:37:10;;;;;;;7.47;4.30;;;;;;;;;;5119622;28;20237;-65
2021/06/25 03:39:39;;;;;;;5.17;4.60;;;;;;;;;;5119953;28;20226;-65
2021/06/25 03:42:07;;;;;;;5.60;3.93;;;;;;;;;;5119471;28;20225;-65
2021/06/25 03:44:35;;;;;;;5.67;4.33;;;;;;;;;;5119679;28;20232;-65
2021/06/25 03:47:03;;;;;;;4.43;4.03;;;;;;;;;;5119786;28;20243;-65
2021/06/25 03:49:31;;;;;;;6.07;4.20;;;;;;;;;;5119615;28;20207;-65
2021/06/25 03:51:58;;;;;;;5.87;4.27;;;;;;;;;;5119394;28;20356;-64
2021/06/25 03:54:26;;;;;;;7.13;4.63;;;;;;;;;;5119841;28;20253;-66
2021/06/25 03:56:55;;;;;;;4.87;4.47;;;;;;;;;;5118844;28;20224;-65
2021/06/25 03:59:23;;;;;;;6.57;4.30;;;;;;;;;;5119665;28;20254;-65
2021/06/25 04:01:52;;;;;;;5.30;4.50;;;;;;;;;;5119492;28;20580;-65
2021/06/25 04:04:20;;;;;;;6.13;4.47;;;;;;;;;;5119334;28;20601;-65
2021/06/25 04:06:47;;;;;;;6.97;4.80;;;;;;;;;;5119477;28;20713;-65
2021/06/25 04:09:15;;;;;;;7.90;4.87;;;;;;;;;;5119183;28;20250;-65
2021/06/25 04:11:44;;;;;;;5.47;4.77;;;;;;;;;;5116322;28;20560;-66
2021/06/25 04:14:13;;;;;;;6.17;4.97;;;;;;;;;;5110010;28;20212;-65
2021/06/25 04:16:40;;;;;;;5.37;4.87;;;;;;;;;;5119299;28;20224;-64
2021/06/25 04:19:08;;;;;;;6.10;5.50;;;;;;;;;;5119344;28;20539;-64
2021/06/25 04:21:36;;;;;;;8.40;4.63;;;;;;;;;;5119266;28;20227;-64
2021/06/25 04:24:04;;;;;;;6.60;4.00;;;;;;;;;;5119240;28;20205;-64
2021/06/25 04:26:32;;;;;;;7.10;4.83;;;;;;;;;;5118770;28;20236;-65
2021/06/25 04:29:02;;;;;;;5.67;4.63;;;;;;;;;;5118796;28;20253;-65
2021/06/25 04:31:31;;;;;;;7.67;4.43;;;;;;;;;;5118977;28;20224;-66
2021/06/25 04:33:59;;;;;;;6.73;5.07;;;;;;;;;;5118788;28;20205;-66
2021/06/25 04:36:27;;;;;;;7.80;4.70;;;;;;;;;;5118370;28;20236;-64
2021/06/25 04:38:54;;;;;;;5.60;5.03;;;;;;;;;;5112932;28;20563;-64
2021/06/25 04:41:22;;;;;;;10.13;5.60;;;;;;;;;;5118398;28;20225;-65
2021/06/25 04:43:50;;;;;;;5.63;5.13;;;;;;;;;;5118891;28;20234;-65
2021/06/25 04:46:18;;;;;;;10.33;6.50;;;;;;;;;;5118522;28;20250;-66
2021/06/25 04:48:47;;;;;;;5.80;5.20;;;;;;;;;;5118576;28;20211;-66
2021/06/25 04:51:15;;;;;;;10.13;6.63;;;;;;;;;;5118680;28;20254;-65
2021/06/25 04:53:42;;;;;;;7.73;6.23;;;;;;;;;;5118732;28;20209;-65
2021/06/25 04:56:10;;;;;;;22.23;11.23;;;;;;;;;;5118312;28;20224;-64
2021/06/25 04:58:38;;;;;;;7.20;5.27;;;;;;;;;;5118466;28;20570;-65
2021/06/25 05:01:05;;;;;;;5.97;4.97;;;;;;;;;;5118433;28;20204;-67
2021/06/25 05:03:36;;;;;;;7.03;4.87;;;;;;;;;;5118234;28;20257;-65
2021/06/25 05:06:05;;;;;;;7.10;5.20;;;;;;;;;;5118723;28;20201;-66
2021/06/25 05:08:33;;;;;;;6.17;4.73;;;;;;;;;;5118538;28;20209;-65
2021/06/25 05:11:01;;;;;;;5.93;4.10;;;;;;;;;;5118103;28;20201;-66
2021/06/25 05:13:29;;;;;;;4.97;4.43;;;;;;;;;;5106734;28;20204;-66
2021/06/25 05:15:56;;;;;;;7.00;4.57;;;;;;;;;;5118227;28;20269;-65
2021/06/25 05:18:24;;;;;;;7.33;4.87;;;;;;;;;;5118360;28;20205;-65
2021/06/25 05:21:13;;;;;;;5.57;4.37;;;;;;;;;;5118096;28;20287;-65
2021/06/25 05:23:41;;;;;;;7.33;4.23;;;;;;;;;;5121154;28;20204;-65
2021/06/25 05:26:09;;;;;;;9.87;5.03;;;;;;;;;;5122271;28;20200;-65
2021/06/25 05:28:36;;;;;;;4.23;3.83;;;;;;;;;;5122036;28;20208;-65
2021/06/25 05:31:04;;;;;;;5.83;4.00;;;;;;;;;;5121885;28;20204;-65
2021/06/25 05:33:32;;;;;;;5.50;4.60;;;;;;;;;;5122349;28;20271;-65
2021/06/25 05:36:00;;;;;;;5.30;4.43;;;;;;;;;;5121920;28;20232;-65
2021/06/25 05:38:29;;;;;;;5.57;4.20;;;;;;;;;;5122100;28;20253;-65
2021/06/25 05:40:57;;;;;;;4.87;4.37;;;;;;;;;;5121571;28;20205;-65
2021/06/25 05:43:24;;;;;;;5.43;3.70;;;;;;;;;;5122153;28;20204;-66
2021/06/25 05:45:52;;;;;;;6.33;4.27;;;;;;;;;;5119443;28;20205;-65
2021/06/25 05:48:20;;;;;;;8.60;4.20;;;;;;;;;;5121798;28;20200;-65
2021/06/25 05:50:47;;;;;;;5.97;4.27;;;;;;;;;;5114801;28;20680;-65
2021/06/25 05:53:15;;;;;;;4.57;4.17;;;;;;;;;;5110263;28;20297;-66
2021/06/25 05:55:45;;;;;;;5.20;4.10;;;;;;;;;;5120734;28;20672;-65
2021/06/25 05:58:12;;;;;;;11.80;4.57;;;;;;;;;;5121148;28;20690;-66
2021/06/25 06:00:40;;;;;;;6.17;3.87;;;;;;;;;;5117271;28;20696;-67
2021/06/25 06:03:08;;;;;;;8.67;4.53;;;;;;;;;;5117570;28;20217;-67
2021/06/25 06:05:36;;;;;;;4.10;3.80;;;;;;;;;;5121177;28;20200;-67
2021/06/25 06:08:03;;;;;;;5.83;4.50;;;;;;;;;;5121450;28;20626;-69
2021/06/25 06:10:31;;;;;;;5.30;3.70;;;;;;;;;;5121151;28;20205;-67
2021/06/25 06:13:01;;;;;;;6.33;3.63;;;;;;;;;;5107917;28;20252;-68
2021/06/25 06:15:29;;;;;;;6.87;3.60;;;;;;;;;;5121418;28;20208;-70
2021/06/25 06:18:00;;;;;;;4.57;4.03;;;;;;;;;;5120979;28;20224;-67
2021/06/25 06:20:28;;;;;;;5.20;3.90;;;;;;;;;;5121247;28;20209;-67
2021/06/25 06:31:19;;;;;;;9.87;3.90;;;;;;;;;;5121047;28;20250;-66
2021/06/25 06:33:49;;;;;;;5.00;3.50;;;;;;;;;;5120079;28;20209;-66
2021/06/25 06:36:22;;;;;;;5.10;3.83;;;;;;;;;;5120242;28;20232;-67
2021/06/25 06:38:55;;;;;;;5.30;4.30;;;;;;;;;;5116950;28;20208;-68
2021/06/25 06:41:23;;;;;;;3.83;3.53;;;;;;;;;;5120622;28;20274;-68
2021/06/25 06:43:52;;;;;;;8.07;3.73;;;;;;;;;;5120844;28;20636;-68
2021/06/25 06:46:20;;;;;;;6.37;3.93;;;;;;;;;;5120394;28;20258;-67
2021/06/25 06:48:48;;;;;;;4.00;3.43;;;;;;;;;;5118379;28;20532;-68
2021/06/25 06:51:18;;;;;;;4.03;3.63;;;;;;;;;;5110462;28;20263;-68
2021/06/25 06:53:47;;;;;;;4.33;3.30;;;;;;;;;;5120151;28;20205;-68
2021/06/25 06:56:15;;;;;;;7.10;3.77;;;;;;;;;;5111139;28;20201;-67
2021/06/25 06:58:45;;;;;;;6.67;3.83;;;;;;;;;;5120058;28;20232;-68
2021/06/25 07:01:14;;;;;;;7.80;3.43;;;;;;;;;;5120315;28;20249;-69
2021/06/25 07:04:02;;;;;;;7.73;3.73;;;;;;;;;;5120412;28;20328;-70
2021/06/25 07:06:30;;;;;;;6.47;3.57;;;;;;;;;;5120002;28;20212;-66
2021/06/25 07:08:57;;;;;;;3.27;3.00;;;;;;;;;;5119617;28;20254;-68
2021/06/25 07:11:25;;;;;;;5.20;3.00;;;;;;;;;;5119043;28;20229;-68
2021/06/25 07:13:53;;;;;;;5.27;3.23;;;;;;;;;;5119641;28;20296;-65
2021/06/25 07:16:22;;;;;;;5.03;3.30;;;;;;;;;;5111284;28;20230;-67
2021/06/25 07:18:51;;;;;;;4.87;3.40;;;;;;;;;;5110060;28;20283;-67
2021/06/25 07:21:19;;;;;;;5.97;3.60;;;;;;;;;;5112237;28;20692;-67
2021/06/25 07:23:47;;;;;;;6.87;3.60;;;;;;;;;;5119792;28;20201;-67
2021/06/25 07:26:14;;;;;;;7.10;3.50;;;;;;;;;;5114092;28;20254;-68
2021/06/25 07:28:42;;;;;;;5.03;3.00;;;;;;;;;;5115668;28;20208;-67
2021/06/25 07:31:10;;;;;;;4.60;2.57;;;;;;;;;;5112955;28;20197;-67
2021/06/25 07:33:39;;;;;;;4.97;3.70;;;;;;;;;;5111430;28;20209;-67
2021/06/25 07:36:07;;;;;;;4.30;2.97;;;;;;;;;;5110005;28;20277;-67
2021/06/25 07:38:35;;;;;;;4.43;3.13;;;;;;;;;;5118823;28;20232;-67
2021/06/25 07:41:02;;;;;;;7.43;3.67;;;;;;;;;;5111144;28;20257;-66
2021/06/25 07:43:30;;;;;;;5.73;3.07;;;;;;;;;;5118708;28;20235;-66
2021/06/25 07:45:58;;;;;;;4.33;2.93;;;;;;;;;;5118750;28;20209;-65
2021/06/25 07:48:26;;;;;;;3.83;3.20;;;;;;;;;;5119416;28;20204;-65
2021/06/25 07:50:55;;;;;;;5.30;3.50;;;;;;;;;;5119714;28;20204;-67
2021/06/25 07:53:23;;;;;;;3.97;2.77;;;;;;;;;;5119405;28;20197;-67
2021/06/25 07:55:50;;;;;;;3.13;2.67;;;;;;;;;;5119024;28;20220;-67
2021/06/25 07:58:18;;;;;;;5.07;2.83;;;;;;;;;;5118350;28;20345;-65
2021/06/25 08:00:46;;;;;;;5.30;3.20;;;;;;;;;;5118533;28;20209;-66
2021/06/25 08:03:14;;;;;;;3.90;2.93;;;;;;;;;;5118525;28;20712;-66
2021/06/25 08:05:42;;;;;;;6.00;3.30;;;;;;;;;;5118924;28;20258;-65
2021/06/25 08:08:11;;;;;;;3.87;3.03;;;;;;;;;;5118813;28;20212;-66
2021/06/25 08:10:39;;;;;;;2.70;2.50;;;;;;;;;;5118710;28;20319;-66
2021/06/25 08:13:07;;;;;;;6.13;3.20;;;;;;;;;;5118239;28;20278;-68
2021/06/25 08:15:35;;;;;;;4.60;2.33;;;;;;;;;;5118840;28;20211;-68
2021/06/25 08:18:03;;;;;;;2.97;2.67;;;;;;;;;;5118029;28;20229;-68
2021/06/25 08:20:31;;;;;;;6.33;2.63;;;;;;;;;;5118088;28;20254;-67
2021/06/25 08:22:59;;;;;;;7.47;3.30;;;;;;;;;;5118154;28;20232;-69
2021/06/25 08:25:28;;;;;;;3.77;3.07;;;;;;;;;;5118054;28;20201;-69
2021/06/25 08:28:02;;;;;;;4.03;2.67;;;;;;;;;;5118083;28;20211;-67
2021/06/25 08:30:29;;;;;;;8.33;2.97;;;;;;;;;;5115061;28;20652;-68
2021/06/25 08:32:57;;;;;;;4.63;3.03;;;;;;;;;;5118033;28;20587;-67
2021/06/25 08:35:25;;;;;;;2.97;2.70;;;;;;;;;;5118276;28;20230;-68
2021/06/25 08:37:54;;;;;;;3.70;3.13;;;;;;;;;;5117927;28;20240;-68
2021/06/25 08:40:23;;;;;;;3.50;2.87;;;;;;;;;;5117981;28;20659;-68
2021/06/25 08:42:52;;;;;;;4.90;2.37;;;;;;;;;;5117842;28;20251;-68
2021/06/25 08:45:20;;;;;;;4.37;3.10;;;;;;;;;;5117911;28;20205;-68
2021/06/25 08:47:48;;;;;;;2.97;2.67;;;;;;;;;;5117583;28;20236;-69
2021/06/25 08:50:18;;;;;;;4.67;3.20;;;;;;;;;;5117180;28;20200;-70
2021/06/25 08:52:47;;;;;;;8.53;6.00;;;;;;;;;;5116091;28;20278;-68
2021/06/25 08:55:15;;;;;;;4.63;3.13;;;;;;;;;;5109620;28;20718;-68
2021/06/25 08:57:43;;;;;;;7.17;3.20;;;;;;;;;;5110965;28;20262;-65
2021/06/25 09:00:13;;;;;;;6.67;3.63;;;;;;;;;;5111319;28;20193;-68
2021/06/25 09:02:41;;;;;;;7.17;3.27;;;;;;;;;;5112841;28;20221;-68
2021/06/25 09:05:24;;;;;;;6.17;3.63;;;;;;;;;;5110194;28;20671;-67
2021/06/25 09:07:54;;;;;;;9.10;3.10;;;;;;;;;;5109616;28;20197;-70
2021/06/25 09:10:29;;;;;;;3.10;2.70;;;;;;;;;;5113600;28;20205;-68
2021/06/25 09:13:01;;;;;;;7.70;2.97;;;;;;;;;;5111042;28;20270;-69
2021/06/25 09:15:31;;;;;;;5.83;2.77;;;;;;;;;;5111390;28;20231;-68
2021/06/25 09:18:01;;;;;;;5.37;3.50;;;;;;;;;;5110456;28;20282;-68
2021/06/25 09:20:31;;;;;;;4.37;3.30;;;;;;;;;;5115159;28;20204;-70
2021/06/25 09:22:59;;;;;;;4.00;3.50;;;;;;;;;;5116498;28;20221;-71
2021/06/25 09:25:27;;;;;;;4.70;2.77;;;;;;;;;;5116211;28;20201;-70
2021/06/25 09:27:57;;;;;;;5.90;2.80;;;;;;;;;;5105966;28;20200;-71
2021/06/25 09:30:25;;;;;;;3.30;2.80;;;;;;;;;;5116594;28;20196;-71
2021/06/25 09:32:54;;;;;;;4.50;3.13;;;;;;;;;;5111750;28;20216;-70
2021/06/25 09:35:23;;;;;;;6.07;3.40;;;;;;;;;;5111011;28;20197;-70
2021/06/25 09:37:53;;;;;;;4.10;2.90;;;;;;;;;;5115868;28;20228;-70
2021/06/25 09:40:21;;;;;;;6.83;3.00;;;;;;;;;;5116224;28;20205;-70
2021/06/25 09:43:04;;;;;;;4.23;2.93;;;;;;;;;;5117238;28;20228;-70
2021/06/25 09:45:31;;;;;;;3.60;2.70;;;;;;;;;;5112084;28;20200;-70
2021/06/25 09:48:01;;;;;;;4.07;3.07;;;;;;;;;;5116145;28;20222;-70
2021/06/25 09:50:31;;;;;;;5.10;2.50;;;;;;;;;;5116645;28;20201;-70
2021/06/25 09:53:00;;;;;;;3.57;2.83;;;;;;;;;;5117251;28;20252;-68
2021/06/25 09:55:28;;;;;;;6.40;3.33;;;;;;;;;;5115956;28;20255;-68
2021/06/25 09:58:08;;;;;;;5.13;2.83;;;;;;;;;;5112827;28;20293;-70
2021/06/25 10:03:47;;;;;;;5.43;3.03;;;;;;;;;;5106265;28;20652;-70
2021/06/25 10:06:16;;;;;;;3.67;2.80;;;;;;;;;;5116848;28;20219;-72
2021/06/25 10:08:44;;;;;;;3.00;2.47;;;;;;;;;;5116917;28;20209;-70
2021/06/25 10:11:13;;;;;;;5.10;2.60;;;;;;;;;;5118986;28;20201;-70
2021/06/25 10:13:41;;;;;;;4.17;2.77;;;;;;;;;;5111764;28;20201;-71
2021/06/25 10:16:10;;;;;;;3.83;2.87;;;;;;;;;;5119814;28;20568;-73
2021/06/25 10:18:38;;;;;;;5.63;2.53;;;;;;;;;;5117640;28;20246;-73
2021/06/25 10:21:09;;;;;;;2.63;2.40;;;;;;;;;;5112935;28;20260;-72
2021/06/25 10:23:37;;;;;;;5.23;3.00;;;;;;;;;;5115902;28;20209;-72
2021/06/25 10:26:07;;;;;;;4.13;2.60;;;;;;;;;;5111534;28;20202;-71
2021/06/25 10:28:39;;;;;;;3.10;2.37;;;;;;;;;;5114424;28;20197;-68
2021/06/25 10:31:08;;;;;;;3.47;2.57;;;;;;;;;;5112581;28;20235;-70
2021/06/25 10:33:36;;;;;;;4.43;2.23;;;;;;;;;;5112956;28;20223;-68
2021/06/25 10:36:05;;;;;;;5.43;2.70;;;;;;;;;;5115035;28;20234;-68
2021/06/25 10:38:35;;;;;;;3.47;3.13;;;;;;;;;;5116865;28;20688;-69
2021/06/25 10:41:04;;;;;;;4.47;2.60;;;;;;;;;;5118699;28;20207;-70
2021/06/25 10:43:38;;;;;;;4.40;2.27;;;;;;;;;;5118308;28;20261;-69
2021/06/25 10:46:06;;;;;;;7.60;2.60;;;;;;;;;;5119471;28;20267;-69
2021/06/25 10:48:38;;;;;;;3.87;2.50;;;;;;;;;;5117286;28;20217;-71
2021/06/25 10:51:20;;;;;;;3.20;2.37;;;;;;;;;;5119354;28;20702;-70
2021/06/25 10:54:03;;;;;;;4.10;2.30;;;;;;;;;;5111087;28;20296;-67
2021/06/25 10:56:32;;;;;;;5.10;2.90;;;;;;;;;;5116532;28;20230;-68
2021/06/25 10:59:19;;;;;;;3.30;2.37;;;;;;;;;;5115094;28;20299;-65
2021/06/25 11:01:48;;;;;;;4.67;2.30;;;;;;;;;;5113599;28;20244;-64
2021/06/25 11:04:34;;;;;;;5.50;3.00;;;;;;;;;;5110194;28;20209;-65
2021/06/25 11:07:05;;;;;;;2.73;2.40;;;;;;;;;;5111583;28;20193;-65
2021/06/25 11:09:57;;;;;;;3.17;2.70;;;;;;;;;;5112649;28;20197;-65
2021/06/25 11:12:27;;;;;;;2.67;2.47;;;;;;;;;;5090003;28;20240;-65
2021/06/25 11:14:56;;;;;;;2.33;2.10;;;;;;;;;;5116544;28;20202;-65
2021/06/25 11:17:42;;;;;;;3.97;2.40;;;;;;;;;;5117967;28;20950;-65
2021/06/25 11:20:20;;;;;;;6.17;2.40;;;;;;;;;;5110504;28;20212;-66
2021/06/25 11:22:53;;;;;;;3.17;2.77;;;;;;;;;;5110909;28;20218;-65
2021/06/25 11:25:33;;;;;;;4.80;2.60;;;;;;;;;;5113980;28;20199;-67
2021/06/25 11:28:15;;;;;;;2.53;2.37;;;;;;;;;;5111090;28;20646;-66
2021/06/25 11:30:58;;;;;;;3.07;2.77;;;;;;;;;;5111555;28;20246;-66
2021/06/25 11:33:27;;;;;;;4.83;2.20;;;;;;;;;;5110953;28;20272;-67
2021/06/25 11:35:55;;;;;;;3.60;2.50;;;;;;;;;;5070519;28;1185235;-66
2021/06/25 11:38:38;;;;;;;2.90;2.50;;;;;;;;;;5112171;28;20204;-66
2021/06/25 11:41:12;;;;;;;3.53;2.67;;;;;;;;;;5112227;28;20237;-66
2021/06/25 11:43:41;;;;;;;4.87;2.37;;;;;;;;;;5114550;28;20229;-67
2021/06/25 11:46:09;;;;;;;2.67;2.00;;;;;;;;;;5112538;28;20240;-66
2021/06/25 11:48:37;;;;;;;4.10;2.30;;;;;;;;;;5111395;28;20286;-68
2021/06/25 11:51:05;;;;;;;2.73;2.10;;;;;;;;;;5112203;28;20265;-68
2021/06/25 11:53:34;;;;;;;3.07;2.70;;;;;;;;;;5110126;28;20199;-67
2021/06/25 11:56:01;;;;;;;4.70;2.70;;;;;;;;;;5111943;28;20290;-67
2021/06/25 11:58:29;;;;;;;3.37;2.57;;;;;;;;;;5114297;28;20264;-69
2021/06/25 12:01:05;;;;;;;2.33;2.00;;;;;;;;;;5113072;28;20224;-69
2021/06/25 12:03:42;;;;;;;4.30;2.70;;;;;;;;;;5114024;28;20205;-69
2021/06/25 12:06:10;;;;;;;3.00;2.30;;;;;;;;;;5110938;28;20232;-67
2021/06/25 12:08:50;;;;;;;3.60;1.93;;;;;;;;;;5111715;28;20659;-67
2021/06/25 12:11:18;;;;;;;3.30;2.43;;;;;;;;;;5112490;28;20224;-68
2021/06/25 12:13:46;;;;;;;5.37;2.23;;;;;;;;;;5106416;28;20601;-67
2021/06/25 12:16:15;;;;;;;3.33;2.10;;;;;;;;;;5119132;28;20215;-67
2021/06/25 12:18:43;;;;;;;5.00;1.80;;;;;;;;;;5117869;28;20199;-69
2021/06/25 12:21:12;;;;;;;3.33;2.03;;;;;;;;;;5118507;28;20281;-68
2021/06/25 12:23:40;;;;;;;2.70;2.13;;;;;;;;;;5116675;28;20232;-68
2021/06/25 12:26:09;;;;;;;4.33;2.30;;;;;;;;;;5117716;28;20201;-69
2021/06/25 12:28:37;;;;;;;2.27;2.03;;;;;;;;;;5103474;28;20208;-68
2021/06/25 12:31:11;;;;;;;3.63;2.00;;;;;;;;;;5116483;28;20255;-67
2021/06/25 12:33:41;;;;;;;2.60;2.40;;;;;;;;;;5116876;28;20205;-68
2021/06/25 12:36:11;;;;;;;2.53;2.00;;;;;;;;;;5117666;28;20292;-67
2021/06/25 12:38:39;;;;;;;4.90;2.20;;;;;;;;;;5116944;28;20216;-67
2021/06/25 12:41:09;;;;;;;2.23;2.00;;;;;;;;;;5117682;28;20578;-69
2021/06/25 12:43:38;;;;;;;3.77;2.10;;;;;;;;;;5114937;28;20220;-67
2021/06/25 12:46:10;;;;;;;2.60;2.07;;;;;;;;;;5118464;28;20209;-68
2021/06/25 12:48:40;;;;;;;2.80;2.03;;;;;;;;;;5117259;28;20218;-68
2021/06/25 12:51:09;;;;;;;2.90;2.10;;;;;;;;;;5118701;28;20210;-67
2021/06/25 12:53:38;;;;;;;2.93;2.33;;;;;;;;;;5118055;28;20205;-67
2021/06/25 12:56:08;;;;;;;3.03;2.10;;;;;;;;;;5118573;28;20567;-68
2021/06/25 12:58:37;;;;;;;2.60;2.00;;;;;;;;;;5104638;28;20205;-67
2021/06/25 13:01:05;;;;;;;2.70;2.03;;;;;;;;;;5116730;28;20250;-69
2021/06/25 13:03:37;;;;;;;1.70;1.60;;;;;;;;;;5117733;28;20282;-67
2021/06/25 13:06:20;;;;;;;3.60;1.93;;;;;;;;;;5118712;28;20233;-68
2021/06/25 13:08:49;;;;;;;1.70;1.60;;;;;;;;;;5116693;28;20222;-67
2021/06/25 13:11:18;;;;;;;2.27;1.60;;;;;;;;;;5117702;28;20750;-67
2021/06/25 13:13:45;;;;;;;4.50;1.70;;;;;;;;;;5116088;28;20242;-69
2021/06/25 13:16:14;;;;;;;2.27;1.30;;;;;;;;;;5118310;28;20209;-69
2021/06/25 13:18:42;;;;;;;2.70;1.40;;;;;;;;;;5103606;28;20264;-68
2021/06/25 13:21:28;;;;;;;2.77;1.80;;;;;;;;;;5116455;28;20226;-68
2021/06/25 13:24:19;;;;;;;1.90;1.80;;;;;;;;;;5115520;28;20205;-69
2021/06/25 13:26:50;;;;;;;2.77;2.20;;;;;;;;;;5035635;28;20293;-68
2021/06/25 13:29:18;;;;;;;2.53;2.10;;;;;;;;;;5111722;28;20193;-69
2021/06/25 13:31:50;;;;;;;5.70;2.10;;;;;;;;;;5110002;28;20225;-69
2021/06/25 13:34:18;;;;;;;2.40;2.20;;;;;;;;;;5114065;28;20226;-69
2021/06/25 13:36:57;;;;;;;3.23;1.70;;;;;;;;;;5116552;28;20760;-69
2021/06/25 13:39:26;;;;;;;4.07;2.33;;;;;;;;;;5111686;28;20557;-69
2021/06/25 13:41:55;;;;;;;2.57;2.07;;;;;;;;;;5111989;28;20233;-68
2021/06/25 13:44:27;;;;;;;2.30;1.97;;;;;;;;;;5114163;28;20551;-68
2021/06/25 13:46:56;;;;;;;2.77;1.93;;;;;;;;;;5114129;28;20204;-67
2021/06/25 13:49:24;;;;;;;3.00;2.40;;;;;;;;;;5116289;28;20196;-68
2021/06/25 13:51:52;;;;;;;3.83;2.63;;;;;;;;;;5114661;28;20226;-69
2021/06/25 13:54:21;;;;;;;3.00;2.30;;;;;;;;;;5116249;28;20234;-68
2021/06/25 13:56:54;;;;;;;2.40;2.20;;;;;;;;;;5113716;28;20200;-68
2021/06/25 13:59:35;;;;;;;2.40;2.00;;;;;;;;;;5111796;28;20206;-67
2021/06/25 14:02:03;;;;;;;2.67;2.43;;;;;;;;;;5115489;28;20246;-67
2021/06/25 14:04:31;;;;;;;4.40;2.17;;;;;;;;;;5114184;28;20201;-69
2021/06/25 14:07:00;;;;;;;3.53;2.00;;;;;;;;;;5118700;28;20668;-68
2021/06/25 14:09:29;;;;;;;3.40;2.40;;;;;;;;;;5118090;28;20560;-68
2021/06/25 14:11:57;;;;;;;3.17;2.07;;;;;;;;;;5110554;28;20269;-69
2021/06/25 14:14:26;;;;;;;2.20;2.00;;;;;;;;;;5115250;28;20241;-67
2021/06/25 14:16:58;;;;;;;2.47;2.27;;;;;;;;;;5117934;28;20202;-69
2021/06/25 14:19:25;;;;;;;7.73;2.20;;;;;;;;;;5120438;28;20259;-70
2021/06/25 14:21:53;;;;;;;4.03;3.17;;;;;;;;;;5117468;28;20222;-69
2021/06/25 14:24:25;;;;;;;2.07;1.80;;;;;;;;;;5115936;28;20193;-70
2021/06/25 14:26:52;;;;;;;2.70;2.50;;;;;;;;;;5112958;28;20253;-73
2021/06/25 14:29:22;;;;;;;2.87;2.40;;;;;;;;;;5117329;28;20200;-70
2021/06/25 14:31:52;;;;;;;4.23;2.37;;;;;;;;;;5113001;28;20260;-71
2021/06/25 14:34:19;;;;;;;3.57;2.60;;;;;;;;;;5114990;28;20207;-71
2021/06/25 14:36:47;;;;;;;5.83;2.30;;;;;;;;;;5115832;28;20275;-72
2021/06/25 14:39:15;;;;;;;3.43;2.27;;;;;;;;;;5112827;28;20197;-71
2021/06/25 14:41:53;;;;;;;3.07;2.17;;;;;;;;;;5114297;28;20315;-71
2021/06/25 14:44:20;;;;;;;2.93;2.10;;;;;;;;;;5114325;28;20601;-71
2021/06/25 14:46:48;;;;;;;3.47;2.13;;;;;;;;;;5116701;28;20286;-71
2021/06/25 14:49:17;;;;;;;2.43;2.27;;;;;;;;;;5113977;28;20198;-71
2021/06/25 14:51:45;;;;;;;3.93;2.03;;;;;;;;;;5113131;28;20244;-70
2021/06/25 14:54:13;;;;;;;3.97;2.10;;;;;;;;;;5113263;28;20246;-71
2021/06/25 14:56:41;;;;;;;2.37;2.13;;;;;;;;;;5113609;28;20203;-71
2021/06/25 14:59:08;;;;;;;3.03;2.43;;;;;;;;;;5113905;28;20233;-71
2021/06/25 15:01:36;;;;;;;2.20;2.00;;;;;;;;;;5112431;28;20278;-72
2021/06/25 15:04:04;;;;;;;3.27;1.97;;;;;;;;;;5117564;28;20197;-71
2021/06/25 15:06:33;;;;;;;9.77;3.90;;;;;;;;;;5115598;28;20251;-71
2021/06/25 15:09:01;;;;;;;2.73;2.27;;;;;;;;;;5114672;28;20205;-71